createdAt,value
2017-03-14T00:00:08.767Z,6.45
2017-03-14T00:01:09.449Z,6.42
2017-03-14T00:02:10.105Z,6.45
2017-03-14T00:03:10.788Z,6.41
2017-03-14T00:04:11.501Z,6.45
2017-03-14T00:05:12.124Z,6.45
2017-03-14T00:06:12.793Z,6.39
2017-03-14T00:07:13.464Z,6.48
2017-03-14T00:08:14.139Z,6.42
2017-03-14T00:09:14.810Z,6.44
2017-03-14T00:10:15.452Z,6.28
2017-03-14T00:11:16.097Z,6.38
2017-03-14T00:12:16.785Z,6.39
2017-03-14T00:13:17.442Z,6.44
2017-03-14T00:14:18.092Z,6.36
2017-03-14T00:15:19.383Z,6.48
2017-03-14T00:16:20.077Z,6.46
2017-03-14T00:17:20.751Z,6.46
2017-03-14T00:18:21.395Z,6.44
2017-03-14T00:19:22.051Z,6.45
2017-03-14T00:20:22.714Z,6.49
2017-03-14T00:21:23.361Z,6.44
2017-03-14T00:22:24.019Z,6.41
2017-03-14T00:23:24.676Z,6.38
2017-03-14T00:24:25.338Z,6.36
2017-03-14T00:25:25.983Z,6.45
2017-03-14T00:26:26.639Z,6.48
2017-03-14T00:27:27.292Z,6.46
2017-03-14T00:28:27.958Z,6.46
2017-03-14T00:29:28.611Z,6.48
2017-03-14T00:30:29.259Z,6.51
2017-03-14T00:31:29.911Z,6.51
2017-03-14T00:32:30.557Z,6.41
2017-03-14T00:33:31.218Z,6.41
2017-03-14T00:34:31.992Z,6.49
2017-03-14T00:35:32.712Z,6.51
2017-03-14T00:36:33.350Z,6.46
2017-03-14T00:37:33.993Z,6.57
2017-03-14T00:38:34.691Z,6.56
2017-03-14T00:39:35.371Z,6.48
2017-03-14T00:40:36.030Z,6.49
2017-03-14T00:41:36.682Z,6.46
2017-03-14T00:42:37.332Z,6.54
2017-03-14T00:43:37.981Z,6.41
2017-03-14T00:44:38.647Z,6.48
2017-03-14T00:45:39.342Z,6.46
2017-03-14T00:46:39.987Z,6.46
2017-03-14T00:47:40.908Z,6.44
2017-03-14T00:48:41.571Z,6.41
2017-03-14T00:49:42.240Z,6.42
2017-03-14T00:50:42.888Z,6.46
2017-03-14T00:51:43.530Z,6.3
2017-03-14T00:52:44.186Z,6.27
2017-03-14T00:53:44.823Z,6.35
2017-03-14T00:54:45.470Z,6.35
2017-03-14T00:55:46.119Z,6.26
2017-03-14T00:56:46.792Z,6.42
2017-03-14T00:57:47.438Z,6.45
2017-03-14T00:58:48.088Z,6.48
2017-03-14T00:59:48.735Z,6.41
2017-03-14T01:00:49.392Z,6.44
2017-03-14T01:01:50.042Z,6.42
2017-03-14T01:02:50.702Z,6.48
2017-03-14T01:03:51.362Z,6.36
2017-03-14T01:04:52.016Z,6.38
2017-03-14T01:05:52.666Z,6.41
2017-03-14T01:06:53.344Z,6.41
2017-03-14T01:07:54.001Z,6.3
2017-03-14T01:08:54.654Z,6.35
2017-03-14T01:09:55.319Z,6.42
2017-03-14T01:10:55.975Z,6.39
2017-03-14T01:11:56.641Z,6.45
2017-03-14T01:12:57.283Z,6.44
2017-03-14T01:13:57.962Z,6.41
2017-03-14T01:14:58.614Z,6.45
2017-03-14T01:15:59.321Z,6.48
2017-03-14T01:16:59.971Z,6.45
2017-03-14T01:18:00.627Z,6.41
2017-03-14T01:19:01.270Z,6.33
2017-03-14T01:20:01.929Z,6.33
2017-03-14T01:21:02.565Z,6.36
2017-03-14T01:22:03.217Z,6.41
2017-03-14T01:23:03.900Z,6.36
2017-03-14T01:24:04.561Z,6.39
2017-03-14T01:25:05.212Z,6.42
2017-03-14T01:26:05.906Z,6.46
2017-03-14T01:27:06.642Z,6.44
2017-03-14T01:28:07.297Z,6.48
2017-03-14T01:29:07.965Z,6.36
2017-03-14T01:30:08.612Z,6.45
2017-03-14T01:31:09.267Z,6.51
2017-03-14T01:32:09.940Z,6.48
2017-03-14T01:33:10.613Z,6.36
2017-03-14T01:34:11.285Z,6.38
2017-03-14T01:35:11.930Z,6.38
2017-03-14T01:36:12.586Z,6.46
2017-03-14T01:37:13.230Z,6.42
2017-03-14T01:38:13.884Z,6.42
2017-03-14T01:39:14.544Z,6.46
2017-03-14T01:40:15.192Z,6.48
2017-03-14T01:41:15.847Z,6.42
2017-03-14T01:42:16.512Z,6.42
2017-03-14T01:43:17.176Z,6.44
2017-03-14T01:44:17.860Z,6.51
2017-03-14T01:45:18.505Z,6.41
2017-03-14T01:46:19.165Z,6.42
2017-03-14T01:47:19.818Z,6.44
2017-03-14T01:48:20.495Z,6.48
2017-03-14T01:49:21.174Z,6.49
2017-03-14T01:50:21.843Z,6.49
2017-03-14T01:51:22.539Z,6.52
2017-03-14T01:52:23.192Z,6.56
2017-03-14T01:53:23.861Z,6.51
2017-03-14T01:54:24.550Z,6.54
2017-03-14T01:55:25.203Z,6.57
2017-03-14T01:56:25.868Z,6.52
2017-03-14T01:57:26.558Z,6.57
2017-03-14T01:58:27.216Z,6.56
2017-03-14T01:59:27.891Z,6.63
2017-03-14T02:00:28.554Z,6.51
2017-03-14T02:01:29.234Z,6.54
2017-03-14T02:02:29.893Z,6.63
2017-03-14T02:03:30.542Z,6.64
2017-03-14T02:04:31.199Z,6.63
2017-03-14T02:05:31.881Z,6.67
2017-03-14T02:06:32.616Z,6.67
2017-03-14T02:07:33.272Z,6.59
2017-03-14T02:08:33.941Z,6.64
2017-03-14T02:09:34.617Z,6.6
2017-03-14T02:10:35.288Z,6.64
2017-03-14T02:11:35.960Z,6.64
2017-03-14T02:12:36.614Z,6.64
2017-03-14T02:13:37.253Z,6.64
2017-03-14T02:14:37.922Z,6.64
2017-03-14T02:15:38.588Z,6.63
2017-03-14T02:16:39.271Z,6.7
2017-03-14T02:17:39.913Z,6.62
2017-03-14T02:18:40.578Z,6.56
2017-03-14T02:19:41.231Z,6.62
2017-03-14T02:20:41.955Z,6.62
2017-03-14T02:21:42.611Z,6.64
2017-03-14T02:22:43.294Z,6.63
2017-03-14T02:23:43.951Z,6.57
2017-03-14T02:24:44.605Z,6.54
2017-03-14T02:25:45.271Z,6.62
2017-03-14T02:26:45.941Z,6.6
2017-03-14T02:27:46.613Z,6.63
2017-03-14T02:28:47.269Z,6.67
2017-03-14T02:29:47.929Z,6.63
2017-03-14T02:30:48.580Z,6.62
2017-03-14T02:31:49.238Z,6.63
2017-03-14T02:32:49.889Z,6.64
2017-03-14T02:33:50.554Z,6.57
2017-03-14T02:34:51.207Z,6.62
2017-03-14T02:35:51.847Z,6.6
2017-03-14T02:36:52.502Z,6.66
2017-03-14T02:37:53.185Z,6.72
2017-03-14T02:38:53.842Z,6.7
2017-03-14T02:39:54.492Z,6.77
2017-03-14T02:40:55.142Z,6.7
2017-03-14T02:41:55.812Z,6.74
2017-03-14T02:42:56.466Z,6.67
2017-03-14T02:43:57.188Z,6.75
2017-03-14T02:44:57.932Z,6.66
2017-03-14T02:45:58.592Z,6.72
2017-03-14T02:47:05.762Z,6.72
2017-03-14T02:48:06.410Z,6.78
2017-03-14T02:49:07.069Z,6.77
2017-03-14T02:50:07.716Z,6.81
2017-03-14T02:51:08.373Z,6.78
2017-03-14T02:52:09.057Z,6.77
2017-03-14T02:53:09.714Z,6.78
2017-03-14T02:54:10.365Z,6.77
2017-03-14T02:55:11.000Z,6.72
2017-03-14T02:56:11.680Z,6.81
2017-03-14T02:57:12.322Z,6.77
2017-03-14T02:58:12.978Z,6.82
2017-03-14T02:59:13.641Z,6.79
2017-03-14T03:00:14.310Z,6.81
2017-03-14T03:01:14.962Z,6.77
2017-03-14T03:02:15.598Z,6.75
2017-03-14T03:03:16.261Z,6.79
2017-03-14T03:04:16.916Z,6.74
2017-03-14T03:05:17.600Z,6.77
2017-03-14T03:06:18.256Z,6.81
2017-03-14T03:07:18.957Z,6.79
2017-03-14T03:08:19.608Z,6.82
2017-03-14T03:09:20.254Z,6.75
2017-03-14T03:10:20.900Z,6.75
2017-03-14T03:11:21.552Z,6.75
2017-03-14T03:12:22.217Z,6.69
2017-03-14T03:13:22.871Z,6.69
2017-03-14T03:14:23.522Z,6.67
2017-03-14T03:15:24.188Z,6.72
2017-03-14T03:16:24.849Z,6.72
2017-03-14T03:17:25.521Z,6.72
2017-03-14T03:18:26.183Z,6.7
2017-03-14T03:19:26.853Z,6.7
2017-03-14T03:20:27.519Z,6.77
2017-03-14T03:21:28.176Z,6.78
2017-03-14T03:22:28.844Z,6.74
2017-03-14T03:23:29.520Z,6.64
2017-03-14T03:24:30.203Z,6.75
2017-03-14T03:25:30.852Z,6.78
2017-03-14T03:26:31.501Z,6.78
2017-03-14T03:27:32.174Z,6.74
2017-03-14T03:28:32.832Z,6.78
2017-03-14T03:29:33.501Z,6.7
2017-03-14T03:30:34.156Z,6.67
2017-03-14T03:31:34.813Z,6.64
2017-03-14T03:32:35.475Z,6.66
2017-03-14T03:33:36.136Z,6.78
2017-03-14T03:34:36.784Z,6.79
2017-03-14T03:35:37.435Z,6.78
2017-03-14T03:36:38.091Z,6.81
2017-03-14T03:37:38.759Z,6.75
2017-03-14T03:38:39.410Z,6.77
2017-03-14T03:39:40.056Z,6.81
2017-03-14T03:40:40.705Z,6.75
2017-03-14T03:41:41.378Z,6.77
2017-03-14T03:42:42.033Z,6.78
2017-03-14T03:43:42.677Z,6.81
2017-03-14T03:44:43.436Z,6.77
2017-03-14T03:45:44.091Z,6.62
2017-03-14T03:46:44.753Z,6.7
2017-03-14T03:47:45.395Z,6.77
2017-03-14T03:48:46.046Z,6.64
2017-03-14T03:49:46.702Z,6.78
2017-03-14T03:50:47.348Z,6.7
2017-03-14T03:51:47.985Z,6.77
2017-03-14T03:52:48.631Z,6.67
2017-03-14T03:53:49.276Z,6.74
2017-03-14T03:54:49.970Z,6.78
2017-03-14T03:55:50.799Z,6.74
2017-03-14T03:56:51.447Z,6.67
2017-03-14T03:57:52.109Z,6.72
2017-03-14T03:58:52.758Z,6.66
2017-03-14T03:59:53.426Z,6.72
2017-03-14T04:00:54.087Z,6.69
2017-03-14T04:01:54.780Z,6.77
2017-03-14T04:02:55.433Z,6.72
2017-03-14T04:03:56.221Z,6.72
2017-03-14T04:04:56.878Z,6.7
2017-03-14T04:05:57.551Z,6.62
2017-03-14T04:06:58.236Z,6.67
2017-03-14T04:07:58.902Z,6.56
2017-03-14T04:08:59.569Z,6.59
2017-03-14T04:10:00.241Z,6.67
2017-03-14T04:11:00.908Z,6.69
2017-03-14T04:12:01.590Z,6.7
2017-03-14T04:13:02.254Z,6.75
2017-03-14T04:14:02.930Z,6.75
2017-03-14T04:15:03.608Z,6.7
2017-03-14T04:16:04.283Z,6.74
2017-03-14T04:17:04.918Z,6.75
2017-03-14T04:18:05.595Z,6.67
2017-03-14T04:19:06.260Z,6.75
2017-03-14T04:20:06.908Z,6.69
2017-03-14T04:21:07.585Z,6.67
2017-03-14T04:22:08.245Z,6.66
2017-03-14T04:23:08.896Z,6.63
2017-03-14T04:24:09.550Z,6.64
2017-03-14T04:25:10.211Z,6.78
2017-03-14T04:26:10.878Z,6.77
2017-03-14T04:27:11.566Z,6.7
2017-03-14T04:28:12.205Z,6.69
2017-03-14T04:29:12.855Z,6.74
2017-03-14T04:30:13.553Z,6.67
2017-03-14T04:31:14.207Z,6.67
2017-03-14T04:32:14.882Z,6.74
2017-03-14T04:33:15.527Z,6.7
2017-03-14T04:34:16.201Z,6.69
2017-03-14T04:35:16.868Z,6.75
2017-03-14T04:36:17.529Z,6.75
2017-03-14T04:37:18.195Z,6.75
2017-03-14T04:38:19.030Z,6.74
2017-03-14T04:39:19.725Z,6.81
2017-03-14T04:40:20.386Z,6.79
2017-03-14T04:41:21.063Z,6.81
2017-03-14T04:42:21.726Z,6.77
2017-03-14T04:43:22.403Z,6.79
2017-03-14T04:44:23.044Z,6.75
2017-03-14T04:45:23.691Z,6.75
2017-03-14T04:46:24.354Z,6.79
2017-03-14T04:47:25.022Z,6.78
2017-03-14T04:48:25.691Z,6.77
2017-03-14T04:49:26.337Z,6.87
2017-03-14T04:50:27.029Z,6.88
2017-03-14T04:51:27.702Z,6.84
2017-03-14T04:52:28.354Z,6.78
2017-03-14T04:53:29.042Z,6.78
2017-03-14T04:54:29.701Z,6.88
2017-03-14T04:55:30.366Z,6.88
2017-03-14T04:56:31.038Z,6.88
2017-03-14T04:57:31.687Z,6.89
2017-03-14T04:58:32.334Z,6.89
2017-03-14T04:59:32.988Z,6.89
2017-03-14T05:00:33.655Z,6.93
2017-03-14T05:01:34.318Z,6.87
2017-03-14T05:02:34.974Z,6.88
2017-03-14T05:03:35.624Z,7
2017-03-14T05:04:36.284Z,6.95
2017-03-14T05:05:36.949Z,6.95
2017-03-14T05:06:37.612Z,7.02
2017-03-14T05:07:38.305Z,6.89
2017-03-14T05:08:38.971Z,6.89
2017-03-14T05:09:39.648Z,6.92
2017-03-14T05:10:40.290Z,6.89
2017-03-14T05:11:40.943Z,6.89
2017-03-14T05:12:41.621Z,6.96
2017-03-14T05:13:42.281Z,6.92
2017-03-14T05:14:42.945Z,6.88
2017-03-14T05:15:43.600Z,6.88
2017-03-14T05:16:44.249Z,6.84
2017-03-14T05:17:44.927Z,6.84
2017-03-14T05:18:45.609Z,6.84
2017-03-14T05:19:46.267Z,6.88
2017-03-14T05:20:46.935Z,6.87
2017-03-14T05:21:47.595Z,6.88
2017-03-14T05:22:48.254Z,6.89
2017-03-14T05:23:48.909Z,6.81
2017-03-14T05:24:49.565Z,6.87
2017-03-14T05:25:50.215Z,6.84
2017-03-14T05:26:50.874Z,6.89
2017-03-14T05:27:51.535Z,6.84
2017-03-14T05:28:52.216Z,6.89
2017-03-14T05:29:52.887Z,6.97
2017-03-14T05:30:53.569Z,6.97
2017-03-14T05:31:54.226Z,6.96
2017-03-14T05:32:54.871Z,6.96
2017-03-14T05:33:55.522Z,7
2017-03-14T05:34:56.175Z,6.97
2017-03-14T05:35:56.830Z,6.99
2017-03-14T05:36:57.490Z,6.97
2017-03-14T05:37:58.141Z,6.95
2017-03-14T05:38:58.801Z,6.99
2017-03-14T05:39:59.609Z,6.95
2017-03-14T05:41:00.341Z,6.97
2017-03-14T05:42:01.002Z,6.96
2017-03-14T05:43:01.649Z,6.92
2017-03-14T05:44:02.312Z,6.96
2017-03-14T05:45:02.959Z,6.97
2017-03-14T05:46:03.622Z,6.99
2017-03-14T05:47:04.284Z,6.93
2017-03-14T05:48:04.951Z,6.97
2017-03-14T05:49:05.594Z,6.97
2017-03-14T05:50:06.246Z,6.96
2017-03-14T05:51:06.917Z,6.92
2017-03-14T05:52:07.596Z,6.97
2017-03-14T05:53:08.244Z,6.95
2017-03-14T05:54:08.948Z,6.96
2017-03-14T05:55:09.608Z,6.92
2017-03-14T05:56:10.268Z,7.05
2017-03-14T05:57:11.471Z,6.95
2017-03-14T05:58:12.127Z,7.06
2017-03-14T05:59:12.796Z,7.06
2017-03-14T06:00:13.469Z,7.03
2017-03-14T06:01:14.150Z,7.02
2017-03-14T06:02:14.822Z,7.1
2017-03-14T06:03:15.494Z,6.93
2017-03-14T06:04:16.162Z,6.93
2017-03-14T06:05:16.835Z,6.95
2017-03-14T06:06:17.505Z,6.95
2017-03-14T06:07:18.176Z,6.96
